createdAt,value
2023-02-18T00:08:07.955Z,9.06
2023-02-18T00:23:12.945Z,9
2023-02-18T00:38:17.936Z,9
2023-02-18T00:53:22.959Z,8.93
2023-02-18T01:08:27.959Z,8.87
2023-02-18T01:23:32.924Z,8.75
2023-02-18T01:38:35.908Z,8.75
2023-02-18T01:53:40.941Z,8.81
2023-02-18T02:08:45.960Z,8.81
2023-02-18T02:23:50.913Z,8.87
2023-02-18T02:38:55.957Z,8.87
2023-02-18T02:54:00.907Z,8.87
2023-02-18T03:09:05.947Z,8.93
2023-02-18T03:24:10.953Z,8.81
2023-02-18T03:39:15.949Z,8.68
2023-02-18T03:54:20.925Z,8.68
2023-02-18T04:09:25.963Z,8.62
2023-02-18T04:24:30.941Z,8.68
2023-02-18T04:39:35.901Z,8.68
2023-02-18T04:54:40.924Z,8.68
2023-02-18T05:09:45.952Z,8.56
2023-02-18T05:24:50.917Z,8.5
2023-02-18T05:39:55.927Z,8.5
2023-02-18T05:55:00.962Z,8.5
2023-02-18T06:10:05.952Z,8.5
2023-02-18T06:25:10.943Z,8.43
2023-02-18T06:40:15.953Z,8.43
2023-02-18T06:55:20.917Z,8.43
2023-02-18T07:10:25.949Z,8.43
2023-02-18T07:25:30.929Z,8.43
2023-02-18T07:40:35.912Z,8.37
2023-02-18T07:55:40.906Z,8.37
2023-02-18T08:10:45.930Z,8.43
2023-02-18T08:25:50.917Z,8.5
2023-02-18T08:40:55.902Z,8.68
2023-02-18T08:56:00.914Z,8.43
2023-02-18T09:11:05.950Z,8.25
2023-02-18T09:26:10.906Z,8.12
2023-02-18T09:41:15.920Z,8.12
2023-02-18T09:56:20.918Z,8.12
2023-02-18T10:11:25.917Z,8.12
2023-02-18T10:26:30.933Z,8.06
2023-02-18T10:41:35.946Z,8
2023-02-18T11:11:50.657Z,7.93
2023-02-18T11:26:50.914Z,7.93
2023-02-18T11:41:56.072Z,8.06
2023-02-18T11:57:00.956Z,8.06
2023-02-18T12:12:05.967Z,8.12
2023-02-18T12:27:09.156Z,8.12
2023-02-18T12:42:13.925Z,8.18
2023-02-18T12:57:18.924Z,8.18
2023-02-18T13:12:23.922Z,8.18
2023-02-18T13:27:28.959Z,8.25
2023-02-18T13:42:31.963Z,8.18
2023-02-18T13:57:36.973Z,8.31
2023-02-18T14:12:41.954Z,8.25
2023-02-18T14:27:46.934Z,8.25
2023-02-18T14:42:51.924Z,8.31
2023-02-18T14:57:56.955Z,8.37
2023-02-18T15:13:02.021Z,8.37
2023-02-18T15:28:08.928Z,8.37
2023-02-18T15:43:13.491Z,8.37
2023-02-18T15:58:16.975Z,8.37
2023-02-18T16:13:21.950Z,8.37
2023-02-18T16:28:26.955Z,8.37
2023-02-18T16:43:31.925Z,8.37
2023-02-18T16:58:36.920Z,8.31
2023-02-18T17:13:41.943Z,8.31
2023-02-18T17:28:46.959Z,8.31
2023-02-18T17:43:51.933Z,8.31
2023-02-18T17:58:56.947Z,8.31
2023-02-18T18:14:01.930Z,8.31
2023-02-18T18:29:06.920Z,8.25
2023-02-18T18:44:11.949Z,8.31
2023-02-18T18:59:16.965Z,8.31
2023-02-18T19:14:21.974Z,8.37
2023-02-18T19:29:26.997Z,8.43
2023-02-18T19:44:31.947Z,8.37
2023-02-18T19:59:36.960Z,8.37
2023-02-18T20:14:41.925Z,8.43
2023-02-18T20:29:46.945Z,8.37
2023-02-18T20:44:51.915Z,8.43
2023-02-18T20:59:56.949Z,8.43
2023-02-18T21:15:01.993Z,8.43
2023-02-18T21:30:07.039Z,8.37
2023-02-18T21:45:11.924Z,8.37
2023-02-18T22:00:20.786Z,8.37
2023-02-18T22:15:22.028Z,8.31
2023-02-18T22:30:26.990Z,8.25
2023-02-18T22:45:31.961Z,8.25
2023-02-18T23:00:36.912Z,8.31
2023-02-18T23:15:41.927Z,8.31
2023-02-18T23:30:46.996Z,8.31
2023-02-18T23:45:51.963Z,8.31
